sensor_id;sensor_type;location;lat;lon;timestamp;P1;durP1;ratioP1;P2;durP2;ratioP2
19778;SDS011;10049;59.306;18.090;2023-08-07T00:00:12;0.10;;;0.10;;
19778;SDS011;10049;59.306;18.090;2023-08-07T00:02:40;0.22;;;0.22;;
19778;SDS011;10049;59.306;18.090;2023-08-07T00:05:07;0.25;;;0.25;;
19778;SDS011;10049;59.306;18.090;2023-08-07T00:07:35;0.47;;;0.25;;
19778;SDS011;10049;59.306;18.090;2023-08-07T00:10:04;0.45;;;0.25;;
19778;SDS011;10049;59.306;18.090;2023-08-07T00:12:32;0.10;;;0.10;;
19778;SDS011;10049;59.306;18.090;2023-08-07T00:15:01;0.45;;;0.30;;
19778;SDS011;10049;59.306;18.090;2023-08-07T00:17:28;0.43;;;0.43;;
19778;SDS011;10049;59.306;18.090;2023-08-07T00:19:56;0.40;;;0.40;;
19778;SDS011;10049;59.306;18.090;2023-08-07T00:22:23;0.45;;;0.40;;
19778;SDS011;10049;59.306;18.090;2023-08-07T00:24:51;0.13;;;0.13;;
19778;SDS011;10049;59.306;18.090;2023-08-07T00:27:19;1.10;;;1.00;;
19778;SDS011;10049;59.306;18.090;2023-08-07T00:29:46;0.20;;;0.20;;
19778;SDS011;10049;59.306;18.090;2023-08-07T00:32:15;0.10;;;0.10;;
19778;SDS011;10049;59.306;18.090;2023-08-07T00:34:43;0.15;;;0.15;;
19778;SDS011;10049;59.306;18.090;2023-08-07T00:37:12;0.20;;;0.20;;
19778;SDS011;10049;59.306;18.090;2023-08-07T00:39:40;0.20;;;0.20;;
19778;SDS011;10049;59.306;18.090;2023-08-07T00:42:09;0.20;;;0.20;;
19778;SDS011;10049;59.306;18.090;2023-08-07T00:44:37;0.38;;;0.38;;
19778;SDS011;10049;59.306;18.090;2023-08-07T00:47:05;0.38;;;0.38;;
19778;SDS011;10049;59.306;18.090;2023-08-07T00:49:34;0.20;;;0.20;;
19778;SDS011;10049;59.306;18.090;2023-08-07T00:52:03;0.20;;;0.20;;
19778;SDS011;10049;59.306;18.090;2023-08-07T00:54:31;0.10;;;0.10;;
19778;SDS011;10049;59.306;18.090;2023-08-07T00:57:00;0.10;;;0.10;;
19778;SDS011;10049;59.306;18.090;2023-08-07T00:59:31;0.43;;;0.43;;
19778;SDS011;10049;59.306;18.090;2023-08-07T01:01:59;0.20;;;0.20;;
19778;SDS011;10049;59.306;18.090;2023-08-07T01:04:29;0.10;;;0.10;;
19778;SDS011;10049;59.306;18.090;2023-08-07T01:06:59;0.10;;;0.10;;
19778;SDS011;10049;59.306;18.090;2023-08-07T01:09:28;0.10;;;0.10;;
19778;SDS011;10049;59.306;18.090;2023-08-07T01:11:57;0.57;;;0.57;;
19778;SDS011;10049;59.306;18.090;2023-08-07T01:14:32;0.20;;;0.20;;
19778;SDS011;10049;59.306;18.090;2023-08-07T01:17:02;0.10;;;0.10;;
19778;SDS011;10049;59.306;18.090;2023-08-07T01:19:32;0.10;;;0.10;;
19778;SDS011;10049;59.306;18.090;2023-08-07T01:22:09;0.20;;;0.20;;
19778;SDS011;10049;59.306;18.090;2023-08-07T01:24:38;0.40;;;0.40;;
19778;SDS011;10049;59.306;18.090;2023-08-07T01:27:12;0.20;;;0.20;;
19778;SDS011;10049;59.306;18.090;2023-08-07T01:29:44;0.13;;;0.13;;
19778;SDS011;10049;59.306;18.090;2023-08-07T01:32:17;0.10;;;0.10;;
19778;SDS011;10049;59.306;18.090;2023-08-07T01:34:46;0.20;;;0.20;;
19778;SDS011;10049;59.306;18.090;2023-08-07T01:37:18;2.05;;;1.23;;
19778;SDS011;10049;59.306;18.090;2023-08-07T01:39:46;0.10;;;0.10;;
19778;SDS011;10049;59.306;18.090;2023-08-07T01:42:15;0.25;;;0.25;;
19778;SDS011;10049;59.306;18.090;2023-08-07T01:44:43;0.10;;;0.10;;
19778;SDS011;10049;59.306;18.090;2023-08-07T01:47:11;0.47;;;0.47;;
19778;SDS011;10049;59.306;18.090;2023-08-07T01:49:38;1.67;;;0.85;;
19778;SDS011;10049;59.306;18.090;2023-08-07T01:52:07;0.08;;;0.08;;
19778;SDS011;10049;59.306;18.090;2023-08-07T01:54:40;0.30;;;0.30;;
19778;SDS011;10049;59.306;18.090;2023-08-07T01:57:07;0.13;;;0.13;;
19778;SDS011;10049;59.306;18.090;2023-08-07T01:59:39;0.20;;;0.20;;
19778;SDS011;10049;59.306;18.090;2023-08-07T02:02:07;0.10;;;0.10;;
19778;SDS011;10049;59.306;18.090;2023-08-07T02:04:42;0.20;;;0.20;;
19778;SDS011;10049;59.306;18.090;2023-08-07T02:07:10;0.20;;;0.20;;
19778;SDS011;10049;59.306;18.090;2023-08-07T02:09:39;0.10;;;0.10;;
19778;SDS011;10049;59.306;18.090;2023-08-07T02:12:07;0.20;;;0.20;;
19778;SDS011;10049;59.306;18.090;2023-08-07T02:14:35;0.15;;;0.15;;
19778;SDS011;10049;59.306;18.090;2023-08-07T02:17:04;0.30;;;0.30;;
19778;SDS011;10049;59.306;18.090;2023-08-07T02:19:33;0.68;;;0.57;;
19778;SDS011;10049;59.306;18.090;2023-08-07T02:22:03;0.30;;;0.30;;
19778;SDS011;10049;59.306;18.090;2023-08-07T02:24:31;0.10;;;0.10;;
19778;SDS011;10049;59.306;18.090;2023-08-07T02:27:00;0.10;;;0.10;;
19778;SDS011;10049;59.306;18.090;2023-08-07T02:29:28;0.10;;;0.10;;
19778;SDS011;10049;59.306;18.090;2023-08-07T02:32:02;0.10;;;0.10;;
19778;SDS011;10049;59.306;18.090;2023-08-07T02:34:30;0.63;;;0.63;;
19778;SDS011;10049;59.306;18.090;2023-08-07T02:36:58;0.20;;;0.20;;
19778;SDS011;10049;59.306;18.090;2023-08-07T02:39:26;0.10;;;0.10;;
19778;SDS011;10049;59.306;18.090;2023-08-07T02:41:56;0.10;;;0.10;;
19778;SDS011;10049;59.306;18.090;2023-08-07T02:44:27;0.40;;;0.35;;
19778;SDS011;10049;59.306;18.090;2023-08-07T02:46:55;0.20;;;0.20;;
19778;SDS011;10049;59.306;18.090;2023-08-07T02:49:23;0.40;;;0.40;;
19778;SDS011;10049;59.306;18.090;2023-08-07T02:51:50;0.10;;;0.10;;
19778;SDS011;10049;59.306;18.090;2023-08-07T02:54:18;0.20;;;0.20;;
19778;SDS011;10049;59.306;18.090;2023-08-07T02:56:46;0.10;;;0.10;;
19778;SDS011;10049;59.306;18.090;2023-08-07T02:59:14;0.30;;;0.30;;
19778;SDS011;10049;59.306;18.090;2023-08-07T03:01:46;0.10;;;0.10;;
19778;SDS011;10049;59.306;18.090;2023-08-07T03:04:13;0.52;;;0.52;;
19778;SDS011;10049;59.306;18.090;2023-08-07T03:06:41;0.10;;;0.10;;
19778;SDS011;10049;59.306;18.090;2023-08-07T03:09:12;0.10;;;0.10;;
19778;SDS011;10049;59.306;18.090;2023-08-07T03:11:40;0.13;;;0.13;;
19778;SDS011;10049;59.306;18.090;2023-08-07T03:14:08;0.10;;;0.10;;
19778;SDS011;10049;59.306;18.090;2023-08-07T03:16:38;0.10;;;0.10;;
19778;SDS011;10049;59.306;18.090;2023-08-07T03:19:10;0.20;;;0.20;;
19778;SDS011;10049;59.306;18.090;2023-08-07T03:21:37;0.20;;;0.20;;
19778;SDS011;10049;59.306;18.090;2023-08-07T03:24:05;0.20;;;0.20;;
19778;SDS011;10049;59.306;18.090;2023-08-07T03:26:33;0.17;;;0.17;;
19778;SDS011;10049;59.306;18.090;2023-08-07T03:29:03;0.10;;;0.10;;
19778;SDS011;10049;59.306;18.090;2023-08-07T03:31:30;0.13;;;0.13;;
19778;SDS011;10049;59.306;18.090;2023-08-07T03:33:58;0.10;;;0.10;;
19778;SDS011;10049;59.306;18.090;2023-08-07T03:36:29;0.17;;;0.17;;
19778;SDS011;10049;59.306;18.090;2023-08-07T03:39:00;0.20;;;0.20;;
19778;SDS011;10049;59.306;18.090;2023-08-07T03:41:28;0.10;;;0.10;;
19778;SDS011;10049;59.306;18.090;2023-08-07T03:43:56;0.20;;;0.20;;
19778;SDS011;10049;59.306;18.090;2023-08-07T03:46:24;0.10;;;0.10;;
19778;SDS011;10049;59.306;18.090;2023-08-07T03:48:54;0.10;;;0.10;;
19778;SDS011;10049;59.306;18.090;2023-08-07T03:51:21;0.20;;;0.20;;
19778;SDS011;10049;59.306;18.090;2023-08-07T03:53:52;0.10;;;0.10;;
19778;SDS011;10049;59.306;18.090;2023-08-07T03:56:19;1.13;;;0.63;;
19778;SDS011;10049;59.306;18.090;2023-08-07T03:58:47;0.10;;;0.10;;
19778;SDS011;10049;59.306;18.090;2023-08-07T04:01:16;0.10;;;0.10;;
19778;SDS011;10049;59.306;18.090;2023-08-07T04:03:46;0.10;;;0.10;;
19778;SDS011;10049;59.306;18.090;2023-08-07T04:06:13;0.52;;;0.30;;
19778;SDS011;10049;59.306;18.090;2023-08-07T04:08:42;0.22;;;0.22;;
19778;SDS011;10049;59.306;18.090;2023-08-07T04:11:13;0.10;;;0.10;;
19778;SDS011;10049;59.306;18.090;2023-08-07T04:13:42;0.10;;;0.10;;
19778;SDS011;10049;59.306;18.090;2023-08-07T04:16:10;0.10;;;0.10;;
19778;SDS011;10049;59.306;18.090;2023-08-07T04:18:38;0.10;;;0.10;;
19778;SDS011;10049;59.306;18.090;2023-08-07T04:21:06;0.28;;;0.28;;
19778;SDS011;10049;59.306;18.090;2023-08-07T04:23:34;3.63;;;1.90;;
19778;SDS011;10049;59.306;18.090;2023-08-07T04:26:02;2.97;;;2.08;;
19778;SDS011;10049;59.306;18.090;2023-08-07T04:28:33;3.42;;;2.20;;
19778;SDS011;10049;59.306;18.090;2023-08-07T04:31:01;5.32;;;3.40;;
19778;SDS011;10049;59.306;18.090;2023-08-07T04:33:31;3.72;;;2.80;;
19778;SDS011;10049;59.306;18.090;2023-08-07T04:36:02;5.78;;;3.90;;
19778;SDS011;10049;59.306;18.090;2023-08-07T04:38:31;6.38;;;4.07;;
19778;SDS011;10049;59.306;18.090;2023-08-07T04:41:04;8.02;;;4.95;;
19778;SDS011;10049;59.306;18.090;2023-08-07T04:43:33;6.80;;;5.28;;
19778;SDS011;10049;59.306;18.090;2023-08-07T04:46:01;7.88;;;5.45;;
19778;SDS011;10049;59.306;18.090;2023-08-07T04:48:29;4.70;;;3.33;;
19778;SDS011;10049;59.306;18.090;2023-08-07T04:50:58;9.95;;;4.97;;
19778;SDS011;10049;59.306;18.090;2023-08-07T04:53:26;6.57;;;3.53;;
19778;SDS011;10049;59.306;18.090;2023-08-07T04:55:55;6.28;;;4.70;;
19778;SDS011;10049;59.306;18.090;2023-08-07T04:58:23;9.25;;;5.88;;
19778;SDS011;10049;59.306;18.090;2023-08-07T05:00:56;7.60;;;5.95;;
19778;SDS011;10049;59.306;18.090;2023-08-07T05:03:25;7.82;;;6.47;;
19778;SDS011;10049;59.306;18.090;2023-08-07T05:05:58;10.23;;;7.18;;
19778;SDS011;10049;59.306;18.090;2023-08-07T05:08:25;5.15;;;3.40;;
19778;SDS011;10049;59.306;18.090;2023-08-07T05:10:54;0.10;;;0.10;;
19778;SDS011;10049;59.306;18.090;2023-08-07T05:13:21;0.10;;;0.10;;
19778;SDS011;10049;59.306;18.090;2023-08-07T05:15:51;0.13;;;0.13;;
19778;SDS011;10049;59.306;18.090;2023-08-07T05:18:21;0.30;;;0.30;;
19778;SDS011;10049;59.306;18.090;2023-08-07T05:20:48;0.30;;;0.30;;
19778;SDS011;10049;59.306;18.090;2023-08-07T05:23:21;0.13;;;0.13;;
19778;SDS011;10049;59.306;18.090;2023-08-07T05:25:48;0.30;;;0.30;;
19778;SDS011;10049;59.306;18.090;2023-08-07T05:28:16;0.10;;;0.10;;
19778;SDS011;10049;59.306;18.090;2023-08-07T05:30:44;0.10;;;0.10;;
19778;SDS011;10049;59.306;18.090;2023-08-07T05:33:14;0.20;;;0.20;;
19778;SDS011;10049;59.306;18.090;2023-08-07T05:35:44;0.17;;;0.17;;
19778;SDS011;10049;59.306;18.090;2023-08-07T05:38:12;0.10;;;0.10;;
19778;SDS011;10049;59.306;18.090;2023-08-07T05:40:40;0.20;;;0.20;;
19778;SDS011;10049;59.306;18.090;2023-08-07T05:43:09;0.20;;;0.20;;
19778;SDS011;10049;59.306;18.090;2023-08-07T05:45:37;0.15;;;0.15;;
19778;SDS011;10049;59.306;18.090;2023-08-07T05:48:07;0.57;;;0.57;;
19778;SDS011;10049;59.306;18.090;2023-08-07T05:50:36;0.10;;;0.10;;
19778;SDS011;10049;59.306;18.090;2023-08-07T05:53:07;4.65;;;0.57;;
19778;SDS011;10049;59.306;18.090;2023-08-07T05:55:35;0.20;;;0.20;;
19778;SDS011;10049;59.306;18.090;2023-08-07T05:58:04;0.60;;;0.40;;
19778;SDS011;10049;59.306;18.090;2023-08-07T06:00:34;0.20;;;0.20;;
19778;SDS011;10049;59.306;18.090;2023-08-07T06:03:03;0.40;;;0.40;;
19778;SDS011;10049;59.306;18.090;2023-08-07T06:05:33;0.20;;;0.20;;
19778;SDS011;10049;59.306;18.090;2023-08-07T06:08:01;0.10;;;0.10;;
19778;SDS011;10049;59.306;18.090;2023-08-07T06:10:35;0.10;;;0.10;;
19778;SDS011;10049;59.306;18.090;2023-08-07T06:13:12;0.68;;;0.65;;
19778;SDS011;10049;59.306;18.090;2023-08-07T06:15:41;0.32;;;0.32;;
19778;SDS011;10049;59.306;18.090;2023-08-07T06:18:11;0.45;;;0.45;;
19778;SDS011;10049;59.306;18.090;2023-08-07T06:20:37;0.32;;;0.32;;
19778;SDS011;10049;59.306;18.090;2023-08-07T06:23:05;0.10;;;0.10;;
19778;SDS011;10049;59.306;18.090;2023-08-07T06:25:36;4.40;;;0.60;;
19778;SDS011;10049;59.306;18.090;2023-08-07T06:28:04;0.82;;;0.82;;
19778;SDS011;10049;59.306;18.090;2023-08-07T06:30:31;0.10;;;0.10;;
19778;SDS011;10049;59.306;18.090;2023-08-07T06:32:59;1.08;;;0.93;;
19778;SDS011;10049;59.306;18.090;2023-08-07T06:35:27;0.10;;;0.10;;
19778;SDS011;10049;59.306;18.090;2023-08-07T06:37:55;0.10;;;0.10;;
19778;SDS011;10049;59.306;18.090;2023-08-07T06:40:23;0.98;;;0.40;;
19778;SDS011;10049;59.306;18.090;2023-08-07T06:42:52;0.38;;;0.38;;
19778;SDS011;10049;59.306;18.090;2023-08-07T06:45:20;0.20;;;0.20;;
19778;SDS011;10049;59.306;18.090;2023-08-07T06:47:48;0.28;;;0.28;;
19778;SDS011;10049;59.306;18.090;2023-08-07T06:50:18;0.20;;;0.20;;
19778;SDS011;10049;59.306;18.090;2023-08-07T06:52:46;0.15;;;0.15;;
19778;SDS011;10049;59.306;18.090;2023-08-07T06:55:15;0.47;;;0.47;;
19778;SDS011;10049;59.306;18.090;2023-08-07T06:57:45;0.10;;;0.10;;
19778;SDS011;10049;59.306;18.090;2023-08-07T07:00:22;0.40;;;0.28;;
19778;SDS011;10049;59.306;18.090;2023-08-07T07:02:50;0.30;;;0.30;;
19778;SDS011;10049;59.306;18.090;2023-08-07T07:05:18;0.10;;;0.10;;
19778;SDS011;10049;59.306;18.090;2023-08-07T07:07:46;0.30;;;0.30;;
19778;SDS011;10049;59.306;18.090;2023-08-07T07:10:14;0.93;;;0.40;;
19778;SDS011;10049;59.306;18.090;2023-08-07T07:12:42;6.70;;;3.45;;
19778;SDS011;10049;59.306;18.090;2023-08-07T07:15:10;6.57;;;3.70;;
19778;SDS011;10049;59.306;18.090;2023-08-07T07:17:39;5.85;;;3.47;;
19778;SDS011;10049;59.306;18.090;2023-08-07T07:20:07;3.65;;;3.28;;
19778;SDS011;10049;59.306;18.090;2023-08-07T07:22:36;9.10;;;3.28;;
19778;SDS011;10049;59.306;18.090;2023-08-07T07:25:06;6.55;;;3.40;;
19778;SDS011;10049;59.306;18.090;2023-08-07T07:27:33;9.35;;;3.53;;
19778;SDS011;10049;59.306;18.090;2023-08-07T07:30:08;6.38;;;3.75;;
19778;SDS011;10049;59.306;18.090;2023-08-07T07:32:40;5.10;;;3.75;;
19778;SDS011;10049;59.306;18.090;2023-08-07T07:35:08;6.15;;;3.70;;
19778;SDS011;10049;59.306;18.090;2023-08-07T07:37:39;8.02;;;3.88;;
19778;SDS011;10049;59.306;18.090;2023-08-07T07:40:07;7.95;;;4.10;;
19778;SDS011;10049;59.306;18.090;2023-08-07T07:42:35;5.78;;;4.05;;
19778;SDS011;10049;59.306;18.090;2023-08-07T07:45:02;5.10;;;4.22;;
19778;SDS011;10049;59.306;18.090;2023-08-07T07:47:30;5.55;;;3.80;;
19778;SDS011;10049;59.306;18.090;2023-08-07T07:50:08;5.28;;;3.88;;
19778;SDS011;10049;59.306;18.090;2023-08-07T07:52:38;4.82;;;3.92;;
19778;SDS011;10049;59.306;18.090;2023-08-07T07:55:06;5.70;;;3.90;;
19778;SDS011;10049;59.306;18.090;2023-08-07T07:57:34;6.22;;;3.90;;
19778;SDS011;10049;59.306;18.090;2023-08-07T08:00:02;4.47;;;3.50;;
19778;SDS011;10049;59.306;18.090;2023-08-07T08:02:35;9.98;;;3.55;;
19778;SDS011;10049;59.306;18.090;2023-08-07T08:05:02;5.53;;;3.53;;
19778;SDS011;10049;59.306;18.090;2023-08-07T08:07:33;4.80;;;3.30;;
19778;SDS011;10049;59.306;18.090;2023-08-07T08:10:01;5.82;;;3.45;;
19778;SDS011;10049;59.306;18.090;2023-08-07T08:12:29;4.93;;;3.20;;
19778;SDS011;10049;59.306;18.090;2023-08-07T08:14:57;4.95;;;3.20;;
19778;SDS011;10049;59.306;18.090;2023-08-07T08:17:27;5.20;;;3.20;;
19778;SDS011;10049;59.306;18.090;2023-08-07T08:19:55;5.25;;;2.78;;
19778;SDS011;10049;59.306;18.090;2023-08-07T08:22:23;6.72;;;3.00;;
19778;SDS011;10049;59.306;18.090;2023-08-07T08:24:55;5.63;;;3.15;;
19778;SDS011;10049;59.306;18.090;2023-08-07T08:27:24;4.93;;;3.47;;
19778;SDS011;10049;59.306;18.090;2023-08-07T08:29:51;4.70;;;3.38;;
19778;SDS011;10049;59.306;18.090;2023-08-07T08:32:19;6.00;;;3.35;;
19778;SDS011;10049;59.306;18.090;2023-08-07T08:34:47;5.38;;;3.92;;
19778;SDS011;10049;59.306;18.090;2023-08-07T08:37:16;5.13;;;3.75;;
19778;SDS011;10049;59.306;18.090;2023-08-07T08:39:43;7.22;;;3.38;;
19778;SDS011;10049;59.306;18.090;2023-08-07T08:42:14;9.48;;;3.63;;
19778;SDS011;10049;59.306;18.090;2023-08-07T08:44:44;7.15;;;3.22;;
19778;SDS011;10049;59.306;18.090;2023-08-07T08:47:14;4.15;;;3.30;;
19778;SDS011;10049;59.306;18.090;2023-08-07T08:49:43;3.47;;;3.13;;
19778;SDS011;10049;59.306;18.090;2023-08-07T08:52:12;4.45;;;3.13;;
19778;SDS011;10049;59.306;18.090;2023-08-07T08:54:42;6.25;;;2.97;;
19778;SDS011;10049;59.306;18.090;2023-08-07T08:57:11;3.17;;;2.78;;
19778;SDS011;10049;59.306;18.090;2023-08-07T08:59:40;5.47;;;3.08;;
19778;SDS011;10049;59.306;18.090;2023-08-07T09:02:08;3.03;;;2.70;;
19778;SDS011;10049;59.306;18.090;2023-08-07T09:04:41;4.57;;;3.08;;
19778;SDS011;10049;59.306;18.090;2023-08-07T09:07:09;8.10;;;3.00;;
19778;SDS011;10049;59.306;18.090;2023-08-07T09:09:37;5.63;;;2.97;;
19778;SDS011;10049;59.306;18.090;2023-08-07T09:12:06;3.22;;;2.90;;
19778;SDS011;10049;59.306;18.090;2023-08-07T09:14:37;6.18;;;3.50;;
19778;SDS011;10049;59.306;18.090;2023-08-07T09:17:07;7.95;;;3.30;;
19778;SDS011;10049;59.306;18.090;2023-08-07T09:19:35;5.68;;;3.28;;
19778;SDS011;10049;59.306;18.090;2023-08-07T09:22:05;3.88;;;3.08;;
19778;SDS011;10049;59.306;18.090;2023-08-07T09:24:34;4.53;;;3.40;;
19778;SDS011;10049;59.306;18.090;2023-08-07T09:27:02;6.00;;;3.67;;
19778;SDS011;10049;59.306;18.090;2023-08-07T09:29:30;4.47;;;3.38;;
19778;SDS011;10049;59.306;18.090;2023-08-07T09:32:00;9.68;;;3.70;;
19778;SDS011;10049;59.306;18.090;2023-08-07T09:34:35;7.05;;;3.38;;
19778;SDS011;10049;59.306;18.090;2023-08-07T09:37:03;6.00;;;3.70;;
19778;SDS011;10049;59.306;18.090;2023-08-07T09:39:31;4.55;;;3.70;;
19778;SDS011;10049;59.306;18.090;2023-08-07T09:42:00;4.10;;;3.40;;
19778;SDS011;10049;59.306;18.090;2023-08-07T09:44:34;4.63;;;3.80;;
19778;SDS011;10049;59.306;18.090;2023-08-07T09:47:11;5.95;;;3.90;;
19778;SDS011;10049;59.306;18.090;2023-08-07T09:49:41;4.65;;;3.60;;
19778;SDS011;10049;59.306;18.090;2023-08-07T09:54:55;3.83;;;3.40;;
19778;SDS011;10049;59.306;18.090;2023-08-07T09:57:24;7.05;;;3.97;;
19778;SDS011;10049;59.306;18.090;2023-08-07T09:59:52;4.60;;;3.60;;
19778;SDS011;10049;59.306;18.090;2023-08-07T10:02:22;5.30;;;3.72;;
19778;SDS011;10049;59.306;18.090;2023-08-07T10:04:51;5.28;;;3.85;;
19778;SDS011;10049;59.306;18.090;2023-08-07T10:07:23;4.32;;;3.92;;
19778;SDS011;10049;59.306;18.090;2023-08-07T10:09:50;4.82;;;3.53;;
19778;SDS011;10049;59.306;18.090;2023-08-07T10:12:18;5.68;;;3.88;;
19778;SDS011;10049;59.306;18.090;2023-08-07T10:14:52;7.65;;;3.55;;
19778;SDS011;10049;59.306;18.090;2023-08-07T10:17:20;4.20;;;3.15;;
19778;SDS011;10049;59.306;18.090;2023-08-07T10:19:48;6.45;;;3.75;;
19778;SDS011;10049;59.306;18.090;2023-08-07T10:22:18;5.38;;;3.78;;
19778;SDS011;10049;59.306;18.090;2023-08-07T10:24:46;8.20;;;4.05;;
19778;SDS011;10049;59.306;18.090;2023-08-07T10:27:15;5.35;;;4.05;;
19778;SDS011;10049;59.306;18.090;2023-08-07T10:29:43;11.38;;;4.20;;
19778;SDS011;10049;59.306;18.090;2023-08-07T10:32:12;6.97;;;4.22;;
19778;SDS011;10049;59.306;18.090;2023-08-07T10:34:40;4.85;;;3.80;;
19778;SDS011;10049;59.306;18.090;2023-08-07T10:37:09;4.75;;;4.00;;
19778;SDS011;10049;59.306;18.090;2023-08-07T10:40:05;4.82;;;3.90;;
19778;SDS011;10049;59.306;18.090;2023-08-07T10:45:17;4.28;;;3.88;;
19778;SDS011;10049;59.306;18.090;2023-08-07T10:47:56;7.90;;;3.83;;
19778;SDS011;10049;59.306;18.090;2023-08-07T10:50:27;5.10;;;3.60;;
19778;SDS011;10049;59.306;18.090;2023-08-07T10:52:56;6.50;;;3.83;;
19778;SDS011;10049;59.306;18.090;2023-08-07T10:55:25;4.53;;;3.72;;
19778;SDS011;10049;59.306;18.090;2023-08-07T10:57:53;5.13;;;3.70;;
19778;SDS011;10049;59.306;18.090;2023-08-07T11:00:21;6.38;;;3.85;;
19778;SDS011;10049;59.306;18.090;2023-08-07T11:02:53;6.50;;;3.72;;
19778;SDS011;10049;59.306;18.090;2023-08-07T11:05:22;5.43;;;4.03;;
19778;SDS011;10049;59.306;18.090;2023-08-07T11:07:51;8.18;;;3.70;;
19778;SDS011;10049;59.306;18.090;2023-08-07T11:10:22;7.72;;;4.00;;
19778;SDS011;10049;59.306;18.090;2023-08-07T11:12:53;7.05;;;4.05;;
19778;SDS011;10049;59.306;18.090;2023-08-07T11:15:25;8.15;;;4.10;;
19778;SDS011;10049;59.306;18.090;2023-08-07T11:17:52;7.30;;;3.65;;
19778;SDS011;10049;59.306;18.090;2023-08-07T11:20:20;8.88;;;4.05;;
19778;SDS011;10049;59.306;18.090;2023-08-07T11:22:55;6.55;;;3.83;;
19778;SDS011;10049;59.306;18.090;2023-08-07T11:25:23;5.68;;;3.50;;
19778;SDS011;10049;59.306;18.090;2023-08-07T11:27:50;6.80;;;3.83;;
19778;SDS011;10049;59.306;18.090;2023-08-07T11:30:19;4.68;;;4.00;;
19778;SDS011;10049;59.306;18.090;2023-08-07T11:32:47;8.50;;;4.28;;
19778;SDS011;10049;59.306;18.090;2023-08-07T11:35:15;5.72;;;3.95;;
19778;SDS011;10049;59.306;18.090;2023-08-07T11:37:45;6.07;;;3.78;;
19778;SDS011;10049;59.306;18.090;2023-08-07T11:40:13;4.80;;;3.83;;
19778;SDS011;10049;59.306;18.090;2023-08-07T11:42:40;4.60;;;3.88;;
19778;SDS011;10049;59.306;18.090;2023-08-07T11:45:08;4.53;;;3.58;;
19778;SDS011;10049;59.306;18.090;2023-08-07T11:47:37;6.22;;;3.55;;
19778;SDS011;10049;59.306;18.090;2023-08-07T11:50:06;7.40;;;3.92;;
19778;SDS011;10049;59.306;18.090;2023-08-07T11:52:34;5.10;;;4.00;;
19778;SDS011;10049;59.306;18.090;2023-08-07T11:55:02;4.85;;;3.70;;
19778;SDS011;10049;59.306;18.090;2023-08-07T11:57:29;5.28;;;3.88;;
19778;SDS011;10049;59.306;18.090;2023-08-07T11:59:58;4.47;;;3.40;;
19778;SDS011;10049;59.306;18.090;2023-08-07T12:02:26;5.00;;;3.60;;
19778;SDS011;10049;59.306;18.090;2023-08-07T12:04:58;5.15;;;3.72;;
19778;SDS011;10049;59.306;18.090;2023-08-07T12:07:26;4.25;;;3.55;;
19778;SDS011;10049;59.306;18.090;2023-08-07T12:09:54;4.57;;;3.65;;
19778;SDS011;10049;59.306;18.090;2023-08-07T12:12:22;5.65;;;3.70;;
19778;SDS011;10049;59.306;18.090;2023-08-07T12:14:52;4.28;;;3.47;;
19778;SDS011;10049;59.306;18.090;2023-08-07T12:17:21;3.50;;;3.20;;
19778;SDS011;10049;59.306;18.090;2023-08-07T12:19:49;4.03;;;3.38;;
19778;SDS011;10049;59.306;18.090;2023-08-07T12:22:21;5.18;;;3.53;;
19778;SDS011;10049;59.306;18.090;2023-08-07T12:24:48;6.28;;;3.80;;
19778;SDS011;10049;59.306;18.090;2023-08-07T12:27:16;4.40;;;3.25;;
19778;SDS011;10049;59.306;18.090;2023-08-07T12:29:44;3.83;;;3.45;;
19778;SDS011;10049;59.306;18.090;2023-08-07T12:32:12;3.75;;;3.03;;
19778;SDS011;10049;59.306;18.090;2023-08-07T12:34:39;7.55;;;3.42;;
19778;SDS011;10049;59.306;18.090;2023-08-07T12:37:07;5.95;;;3.58;;
19778;SDS011;10049;59.306;18.090;2023-08-07T12:39:36;3.13;;;2.83;;
19778;SDS011;10049;59.306;18.090;2023-08-07T12:42:07;4.47;;;3.47;;
19778;SDS011;10049;59.306;18.090;2023-08-07T12:44:34;4.38;;;3.50;;
19778;SDS011;10049;59.306;18.090;2023-08-07T12:47:02;7.00;;;4.20;;
19778;SDS011;10049;59.306;18.090;2023-08-07T12:49:29;7.55;;;3.47;;
19778;SDS011;10049;59.306;18.090;2023-08-07T12:52:03;5.63;;;3.58;;
19778;SDS011;10049;59.306;18.090;2023-08-07T12:54:45;8.75;;;3.40;;
19778;SDS011;10049;59.306;18.090;2023-08-07T12:57:13;4.28;;;3.40;;
19778;SDS011;10049;59.306;18.090;2023-08-07T12:59:40;4.55;;;3.10;;
19778;SDS011;10049;59.306;18.090;2023-08-07T13:02:07;4.60;;;3.15;;
19778;SDS011;10049;59.306;18.090;2023-08-07T13:04:36;3.30;;;2.90;;
19778;SDS011;10049;59.306;18.090;2023-08-07T13:07:03;2.83;;;2.63;;
19778;SDS011;10049;59.306;18.090;2023-08-07T13:09:31;2.90;;;2.50;;
19778;SDS011;10049;59.306;18.090;2023-08-07T13:12:01;3.17;;;2.63;;
19778;SDS011;10049;59.306;18.090;2023-08-07T13:14:34;2.65;;;2.45;;
19778;SDS011;10049;59.306;18.090;2023-08-07T13:17:02;4.05;;;2.70;;
19778;SDS011;10049;59.306;18.090;2023-08-07T13:19:30;4.00;;;2.80;;
19778;SDS011;10049;59.306;18.090;2023-08-07T13:22:00;2.60;;;2.40;;
19778;SDS011;10049;59.306;18.090;2023-08-07T13:24:28;2.75;;;2.40;;
19778;SDS011;10049;59.306;18.090;2023-08-07T13:26:56;3.05;;;2.55;;
19778;SDS011;10049;59.306;18.090;2023-08-07T13:29:25;2.95;;;2.25;;
19778;SDS011;10049;59.306;18.090;2023-08-07T13:31:56;2.75;;;2.50;;
19778;SDS011;10049;59.306;18.090;2023-08-07T13:34:23;3.88;;;2.60;;
19778;SDS011;10049;59.306;18.090;2023-08-07T13:37:12;3.00;;;2.70;;
19778;SDS011;10049;59.306;18.090;2023-08-07T13:39:39;3.70;;;2.50;;
19778;SDS011;10049;59.306;18.090;2023-08-07T13:42:07;2.70;;;2.47;;
19778;SDS011;10049;59.306;18.090;2023-08-07T13:44:37;3.80;;;2.40;;
19778;SDS011;10049;59.306;18.090;2023-08-07T13:47:05;2.60;;;2.40;;
19778;SDS011;10049;59.306;18.090;2023-08-07T13:49:32;3.00;;;2.40;;
19778;SDS011;10049;59.306;18.090;2023-08-07T13:52:00;3.30;;;2.70;;
19778;SDS011;10049;59.306;18.090;2023-08-07T13:54:27;3.15;;;2.42;;
19778;SDS011;10049;59.306;18.090;2023-08-07T13:56:55;3.38;;;2.63;;
19778;SDS011;10049;59.306;18.090;2023-08-07T13:59:23;2.60;;;2.40;;
19778;SDS011;10049;59.306;18.090;2023-08-07T14:01:52;4.40;;;2.88;;
19778;SDS011;10049;59.306;18.090;2023-08-07T14:04:21;5.40;;;2.60;;
19778;SDS011;10049;59.306;18.090;2023-08-07T14:06:49;3.40;;;3.00;;
19778;SDS011;10049;59.306;18.090;2023-08-07T14:09:16;9.15;;;3.20;;
19778;SDS011;10049;59.306;18.090;2023-08-07T14:11:46;8.93;;;3.28;;
19778;SDS011;10049;59.306;18.090;2023-08-07T14:14:16;4.18;;;3.20;;
19778;SDS011;10049;59.306;18.090;2023-08-07T14:16:43;4.82;;;3.40;;
19778;SDS011;10049;59.306;18.090;2023-08-07T14:19:12;5.35;;;3.63;;
19778;SDS011;10049;59.306;18.090;2023-08-07T14:21:39;3.85;;;3.42;;
19778;SDS011;10049;59.306;18.090;2023-08-07T14:24:07;5.22;;;3.80;;
19778;SDS011;10049;59.306;18.090;2023-08-07T14:26:35;4.75;;;3.50;;
19778;SDS011;10049;59.306;18.090;2023-08-07T14:29:03;3.90;;;3.50;;
19778;SDS011;10049;59.306;18.090;2023-08-07T14:31:31;3.72;;;3.10;;
19778;SDS011;10049;59.306;18.090;2023-08-07T14:34:00;4.25;;;3.28;;
19778;SDS011;10049;59.306;18.090;2023-08-07T14:36:29;7.22;;;3.38;;
19778;SDS011;10049;59.306;18.090;2023-08-07T14:38:57;3.80;;;3.40;;
19778;SDS011;10049;59.306;18.090;2023-08-07T14:41:25;6.18;;;3.20;;
19778;SDS011;10049;59.306;18.090;2023-08-07T14:43:53;7.28;;;3.25;;
19778;SDS011;10049;59.306;18.090;2023-08-07T14:46:20;4.28;;;3.40;;
19778;SDS011;10049;59.306;18.090;2023-08-07T14:48:48;4.57;;;3.60;;